createdAt,value
2022-09-20T00:01:45.532Z,9.30
2022-09-20T00:04:13.109Z,9.30
2022-09-20T00:06:40.398Z,9.10
2022-09-20T00:09:07.918Z,9.10
2022-09-20T00:11:36.794Z,9.00
2022-09-20T00:14:06.658Z,8.90
2022-09-20T00:16:37.963Z,8.90
2022-09-20T00:19:07.358Z,9.00
2022-09-20T00:21:36.783Z,8.90
2022-09-20T00:24:04.515Z,8.90
2022-09-20T00:26:34.010Z,8.90
2022-09-20T00:29:02.074Z,8.80
2022-09-20T00:31:29.662Z,8.70
2022-09-20T00:34:16.324Z,8.60
2022-09-20T00:36:44.406Z,8.40
2022-09-20T00:39:14.157Z,8.50
2022-09-20T00:41:43.228Z,8.50
2022-09-20T00:44:49.531Z,8.40
2022-09-20T00:47:28.789Z,8.30
2022-09-20T00:50:06.207Z,8.30
2022-09-20T00:52:35.587Z,8.20
2022-09-20T00:55:08.638Z,8.20
2022-09-20T00:57:38.768Z,8.20
2022-09-20T01:00:09.900Z,8.10
2022-09-20T01:02:47.612Z,8.20
2022-09-20T01:05:18.035Z,8.20
2022-09-20T01:07:47.893Z,8.20
2022-09-20T01:10:15.216Z,8.20
2022-09-20T01:12:46.664Z,8.30
2022-09-20T01:15:16.185Z,8.20
2022-09-20T01:17:48.521Z,8.10
2022-09-20T01:20:26.531Z,8.20
2022-09-20T01:23:28.124Z,8.10
2022-09-20T01:26:28.346Z,8.00
2022-09-20T01:29:48.584Z,7.90
2022-09-20T01:32:21.412Z,7.90
2022-09-20T01:34:53.830Z,7.80
2022-09-20T01:37:47.821Z,7.80
2022-09-20T01:40:46.032Z,7.70
2022-09-20T01:43:35.996Z,7.60
2022-09-20T01:46:17.403Z,7.50
2022-09-20T01:48:44.878Z,7.70
2022-09-20T01:51:56.591Z,7.60
2022-09-20T01:55:20.301Z,7.60
2022-09-20T01:58:32.435Z,7.50
2022-09-20T02:57:14.950Z,7.10
2022-09-20T02:59:56.982Z,7.20
2022-09-20T03:02:50.987Z,7.10
2022-09-20T03:06:03.120Z,7.10
2022-09-20T03:09:17.450Z,6.90
2022-09-20T03:12:16.999Z,6.90
2022-09-20T03:15:20.043Z,6.90
2022-09-20T03:18:11.355Z,6.90
2022-09-20T03:21:22.874Z,7.00
2022-09-20T03:24:30.544Z,7.00
2022-09-20T03:27:16.732Z,6.90
2022-09-20T03:30:16.150Z,6.80
2022-09-20T03:33:22.572Z,6.90
2022-09-20T03:36:24.430Z,6.70
2022-09-20T03:39:39.827Z,6.60
2022-09-20T03:42:27.119Z,6.50
2022-09-20T03:45:39.712Z,6.50
2022-09-20T03:51:38.807Z,6.30
2022-09-20T03:54:46.361Z,6.30
2022-09-20T03:57:46.302Z,6.40
2022-09-20T04:00:42.101Z,6.30
2022-09-20T04:03:32.648Z,6.20
2022-09-20T04:06:41.699Z,6.40
2022-09-20T04:10:01.323Z,6.30
2022-09-20T04:13:00.559Z,6.40
2022-09-20T04:15:37.428Z,6.20
2022-09-20T04:18:33.291Z,6.20
2022-09-20T04:21:17.668Z,6.40
2022-09-20T04:24:11.822Z,6.40
2022-09-20T04:26:47.319Z,6.30
2022-09-20T04:29:48.200Z,6.30
2022-09-20T04:33:08.948Z,6.10
2022-09-20T04:36:29.800Z,6.20
2022-09-20T04:39:35.606Z,6.40
2022-09-20T04:42:45.766Z,6.30
2022-09-20T04:45:54.305Z,6.20
2022-09-20T04:48:51.681Z,6.10
2022-09-20T04:51:59.156Z,6.10
2022-09-20T04:55:14.393Z,6.20
2022-09-20T05:01:48.932Z,6.20
2022-09-20T05:42:54.144Z,6.00
2022-09-20T05:46:00.946Z,6.00
2022-09-20T05:49:22.979Z,6.10
2022-09-20T05:52:44.200Z,6.40
2022-09-20T05:55:58.657Z,6.50
2022-09-20T05:59:19.362Z,6.50
2022-09-20T06:02:45.384Z,6.50
2022-09-20T06:05:17.426Z,6.60
2022-09-20T06:08:16.989Z,6.60
2022-09-20T06:11:15.063Z,6.70
2022-09-20T06:25:23.212Z,7.30
2022-09-20T06:28:18.024Z,7.40
2022-09-20T06:30:55.870Z,7.60
2022-09-20T06:33:28.425Z,7.50
2022-09-20T06:36:38.438Z,7.60
2022-09-20T06:40:28.343Z,7.60
2022-09-20T06:42:56.088Z,7.70
2022-09-20T06:45:23.086Z,7.80
2022-09-20T06:47:50.146Z,8.00
2022-09-20T06:50:17.987Z,8.00
2022-09-20T06:52:46.686Z,8.10
2022-09-20T06:55:26.054Z,8.10
2022-09-20T06:57:55.781Z,8.30
2022-09-20T07:00:22.784Z,8.40
2022-09-20T07:02:50.036Z,8.50
2022-09-20T07:05:21.688Z,8.50
2022-09-20T07:07:49.005Z,8.60
2022-09-20T07:10:17.055Z,8.70
2022-09-20T07:12:44.084Z,8.80
2022-09-20T07:15:11.312Z,8.80
2022-09-20T07:17:38.368Z,8.90
2022-09-20T07:20:05.972Z,9.10
2022-09-20T07:22:33.303Z,9.20
2022-09-20T07:25:02.561Z,9.20
2022-09-20T07:27:30.000Z,9.30
2022-09-20T07:29:57.107Z,9.40
2022-09-20T07:32:24.210Z,9.50
2022-09-20T07:34:51.388Z,9.60
2022-09-20T07:37:19.428Z,9.80
2022-09-20T07:39:46.566Z,9.90
2022-09-20T07:42:14.178Z,10.00
2022-09-20T07:44:42.387Z,10.10
2022-09-20T07:47:11.354Z,10.30
2022-09-20T07:49:38.372Z,10.50
2022-09-20T07:52:05.439Z,10.50
2022-09-20T07:54:32.480Z,10.70
2022-09-20T07:56:59.956Z,10.80
2022-09-20T07:59:27.015Z,10.80
2022-09-20T08:01:54.056Z,11.10
2022-09-20T08:04:21.080Z,11.20
2022-09-20T08:06:48.123Z,11.50
2022-09-20T08:09:15.152Z,11.60
2022-09-20T08:11:43.692Z,11.60
2022-09-20T08:14:15.643Z,11.70
2022-09-20T08:16:47.733Z,12.10
2022-09-20T08:19:21.017Z,12.10
2022-09-20T08:21:49.933Z,12.30
2022-09-20T08:24:17.334Z,12.40
2022-09-20T08:26:44.640Z,12.40
2022-09-20T08:31:42.457Z,12.80
2022-09-20T08:34:12.215Z,13.00
2022-09-20T08:36:41.838Z,13.20
2022-09-20T08:42:09.080Z,13.20
2022-09-20T08:45:07.286Z,13.00
2022-09-20T08:47:37.043Z,13.50
2022-09-20T08:50:11.527Z,13.70
2022-09-20T08:52:40.789Z,14.10
2022-09-20T08:55:20.422Z,13.90
2022-09-20T08:57:54.062Z,14.10
2022-09-20T09:00:36.284Z,14.40
2022-09-20T09:03:12.187Z,14.50
2022-09-20T09:05:45.185Z,14.60
2022-09-20T09:08:18.505Z,14.60
2022-09-20T09:10:54.915Z,14.60
2022-09-20T09:14:30.382Z,14.80
2022-09-20T09:16:57.825Z,15.10
2022-09-20T09:19:33.926Z,15.50
2022-09-20T09:22:04.448Z,15.40
2022-09-20T09:24:31.905Z,15.00
2022-09-20T09:27:16.779Z,15.10
2022-09-20T09:29:55.060Z,15.50
2022-09-20T09:32:33.006Z,15.50
2022-09-20T09:35:25.019Z,16.20
2022-09-20T09:38:02.515Z,16.10
2022-09-20T09:40:31.877Z,16.10
2022-09-20T09:43:02.751Z,16.40
2022-09-20T09:45:36.245Z,16.30
2022-09-20T09:48:17.285Z,16.00
2022-09-20T09:50:44.706Z,16.80
2022-09-20T09:53:18.575Z,16.10
2022-09-20T09:56:33.414Z,16.50
2022-09-20T09:59:40.319Z,17.10
2022-09-20T10:03:00.592Z,17.10
2022-09-20T10:06:01.931Z,17.50
2022-09-20T10:09:12.765Z,18.50
2022-09-20T10:12:17.809Z,18.50
2022-09-20T10:15:27.138Z,19.40
2022-09-20T10:18:28.294Z,18.40
2022-09-20T10:21:39.306Z,18.30
2022-09-20T10:24:42.579Z,19.20
2022-09-20T10:27:42.180Z,19.60
2022-09-20T10:30:21.006Z,19.00
2022-09-20T11:11:22.727Z,17.70
2022-09-20T11:14:12.773Z,17.60
2022-09-20T11:16:48.171Z,17.90
2022-09-20T11:19:57.460Z,18.20
2022-09-20T11:25:47.365Z,18.50
2022-09-20T11:28:47.370Z,18.70
2022-09-20T11:31:39.777Z,18.60
2022-09-20T11:34:43.520Z,19.70
2022-09-20T11:37:10.932Z,18.80
2022-09-20T11:39:53.952Z,18.90
2022-09-20T11:42:34.598Z,18.80
2022-09-20T11:45:01.847Z,19.10
2022-09-20T11:47:54.648Z,19.00
2022-09-20T11:51:01.485Z,19.10
2022-09-20T11:57:16.831Z,18.10
2022-09-20T11:59:54.024Z,18.60
2022-09-20T12:02:31.343Z,19.80
2022-09-20T12:04:59.576Z,21.10
2022-09-20T12:07:35.424Z,20.70
2022-09-20T12:10:18.688Z,21.90
2022-09-20T12:12:51.182Z,22.20
2022-09-20T12:15:39.240Z,22.60
2022-09-20T12:18:31.347Z,22.90
2022-09-20T12:21:04.913Z,24.30
2022-09-20T12:24:02.201Z,23.20
2022-09-20T12:26:41.418Z,23.10
2022-09-20T12:29:52.154Z,24.00
2022-09-20T12:32:46.428Z,23.10
2022-09-20T12:35:58.175Z,21.80
2022-09-20T12:38:31.315Z,23.80
2022-09-20T12:41:00.612Z,22.30
2022-09-20T12:43:30.238Z,21.50
2022-09-20T12:46:03.908Z,21.70
2022-09-20T12:48:36.996Z,20.00
2022-09-20T12:51:40.505Z,22.00
2022-09-20T12:56:39.842Z,23.10
2022-09-20T12:59:24.607Z,22.30
2022-09-20T13:01:52.079Z,22.10
2022-09-20T13:05:05.749Z,21.40
2022-09-20T13:07:43.308Z,20.80
2022-09-20T13:10:39.418Z,20.80
2022-09-20T13:13:15.741Z,20.10
2022-09-20T13:15:50.336Z,20.10
2022-09-20T13:18:18.761Z,19.40
2022-09-20T13:20:46.040Z,19.80
2022-09-20T13:23:28.603Z,20.50
2022-09-20T13:25:58.262Z,22.90
2022-09-20T13:28:40.920Z,25.40
2022-09-20T13:31:28.444Z,26.30
2022-09-20T13:34:12.087Z,28.00
2022-09-20T13:36:39.236Z,27.90
2022-09-20T13:39:07.497Z,28.10
2022-09-20T13:41:35.827Z,29.80
2022-09-20T13:44:03.141Z,29.20
2022-09-20T13:46:33.312Z,25.00
2022-09-20T13:49:20.969Z,28.10
2022-09-20T13:51:49.261Z,25.80
2022-09-20T13:54:41.201Z,23.30
2022-09-20T13:57:33.990Z,21.60
2022-09-20T14:00:01.805Z,21.40
2022-09-20T14:02:39.867Z,20.80
2022-09-20T14:05:07.734Z,23.50
2022-09-20T14:07:37.037Z,25.90
2022-09-20T14:10:05.234Z,25.80
2022-09-20T14:12:34.032Z,26.70
2022-09-20T14:15:06.221Z,28.20
2022-09-20T14:17:35.632Z,29.50
2022-09-20T14:20:03.156Z,29.80
2022-09-20T14:22:30.475Z,29.40
2022-09-20T14:25:04.453Z,29.20
2022-09-20T14:27:32.108Z,29.80
2022-09-20T14:29:59.211Z,29.70
2022-09-20T14:32:45.149Z,29.60
2022-09-20T14:35:20.740Z,24.70
2022-09-20T14:38:01.657Z,24.70
2022-09-20T14:40:40.583Z,25.30
2022-09-20T14:43:21.920Z,24.70
2022-09-20T14:45:54.513Z,27.80
2022-09-20T14:48:42.126Z,27.00
2022-09-20T14:51:27.637Z,26.70
2022-09-20T14:54:22.486Z,29.20
2022-09-20T14:56:53.006Z,28.90
2022-09-20T14:59:25.722Z,28.80
2022-09-20T15:02:22.474Z,28.00
2022-09-20T15:04:56.194Z,23.30
2022-09-20T15:07:23.343Z,21.90
2022-09-20T15:09:50.339Z,20.80
2022-09-20T15:12:21.571Z,20.20
2022-09-20T15:14:49.347Z,19.50
2022-09-20T15:17:21.584Z,19.30
2022-09-20T15:19:50.242Z,19.90
2022-09-20T15:22:17.250Z,19.50
2022-09-20T15:24:44.410Z,19.10
2022-09-20T15:27:12.629Z,18.90
2022-09-20T15:29:39.869Z,18.50
2022-09-20T15:32:09.192Z,18.60
2022-09-20T15:34:36.357Z,18.50
2022-09-20T15:37:03.400Z,18.40
2022-09-20T15:39:30.520Z,18.40
2022-09-20T15:41:57.601Z,18.30
2022-09-20T15:44:24.981Z,18.20
2022-09-20T15:46:53.254Z,17.90
2022-09-20T15:49:21.803Z,17.60
2022-09-20T15:51:48.794Z,17.40
2022-09-20T15:54:15.944Z,17.20
2022-09-20T15:56:42.984Z,17.10
2022-09-20T15:59:11.961Z,17.30
2022-09-20T16:01:41.748Z,17.30
2022-09-20T16:04:19.636Z,17.00
2022-09-20T16:06:49.551Z,16.70
2022-09-20T16:09:16.954Z,16.60
2022-09-20T16:11:44.160Z,16.50
2022-09-20T16:14:11.375Z,16.50
2022-09-20T16:16:40.568Z,16.60
2022-09-20T16:19:23.866Z,16.30
2022-09-20T16:21:58.094Z,16.30
2022-09-20T16:24:27.907Z,16.20
2022-09-20T16:26:55.088Z,16.20
2022-09-20T16:29:26.068Z,16.00
2022-09-20T16:31:54.478Z,16.00
2022-09-20T16:34:39.471Z,15.80
2022-09-20T16:37:12.212Z,15.80
2022-09-20T16:39:40.438Z,15.70
2022-09-20T16:42:09.130Z,15.70
2022-09-20T16:44:37.808Z,15.60
2022-09-20T16:47:10.633Z,15.40
2022-09-20T16:49:38.471Z,15.50
2022-09-20T16:52:06.973Z,15.30
2022-09-20T16:54:34.598Z,15.20
2022-09-20T16:57:01.916Z,15.20
2022-09-20T16:59:29.291Z,15.20
2022-09-20T17:01:56.727Z,15.10
2022-09-20T17:04:23.860Z,15.00
2022-09-20T17:06:52.174Z,15.00
2022-09-20T17:09:19.257Z,14.90
2022-09-20T17:11:50.284Z,14.90
2022-09-20T17:14:19.993Z,14.80
2022-09-20T17:16:48.515Z,14.70
2022-09-20T17:19:18.622Z,14.70
2022-09-20T17:21:51.834Z,14.70
2022-09-20T17:24:20.690Z,14.60
2022-09-20T17:26:48.966Z,14.60
2022-09-20T17:29:17.609Z,14.60
2022-09-20T17:31:51.427Z,14.50
2022-09-20T17:34:22.176Z,14.50
2022-09-20T17:36:50.610Z,14.40
2022-09-20T17:39:18.179Z,14.40
2022-09-20T17:41:49.450Z,14.40
2022-09-20T17:44:16.920Z,14.40
2022-09-20T17:46:46.268Z,14.30
2022-09-20T17:49:15.325Z,14.30
2022-09-20T17:51:44.441Z,14.30
2022-09-20T17:54:14.015Z,14.20
2022-09-20T17:56:47.277Z,14.10
2022-09-20T17:59:18.057Z,14.10
2022-09-20T18:01:46.843Z,14.10
2022-09-20T18:04:14.716Z,14.00
2022-09-20T18:06:52.850Z,14.00
2022-09-20T18:09:22.953Z,13.90
2022-09-20T18:11:52.962Z,13.90
2022-09-20T18:14:28.093Z,13.80
2022-09-20T18:16:58.241Z,13.80
2022-09-20T18:19:32.453Z,13.70
2022-09-20T18:22:01.025Z,13.80
2022-09-20T18:24:28.076Z,13.80
2022-09-20T18:26:55.309Z,13.80
2022-09-20T18:29:22.380Z,13.80
2022-09-20T18:31:52.224Z,13.70
2022-09-20T18:34:21.863Z,13.70
2022-09-20T18:36:54.898Z,13.70
2022-09-20T18:39:26.797Z,13.60
2022-09-20T18:41:54.540Z,13.60
2022-09-20T18:44:22.643Z,13.60
2022-09-20T18:46:53.554Z,13.50
2022-09-20T18:49:21.732Z,13.60
2022-09-20T18:51:49.596Z,13.50
2022-09-20T18:54:17.221Z,13.50
2022-09-20T18:56:46.326Z,13.40
2022-09-20T18:59:18.784Z,13.40
2022-09-20T19:02:30.340Z,13.40
2022-09-20T19:05:15.008Z,13.40
2022-09-20T19:08:08.601Z,13.30
2022-09-20T19:10:43.566Z,13.30
2022-09-20T19:13:57.081Z,13.20
2022-09-20T19:16:30.812Z,13.20
2022-09-20T19:19:18.081Z,13.20
2022-09-20T19:22:14.947Z,13.10
2022-09-20T19:25:28.552Z,13.10
2022-09-20T19:27:55.899Z,13.00
2022-09-20T19:30:23.851Z,12.90
2022-09-20T19:32:51.328Z,12.90
2022-09-20T19:35:24.160Z,12.80
2022-09-20T19:38:15.698Z,12.70
2022-09-20T19:41:10.800Z,12.70
2022-09-20T19:44:19.122Z,12.70
2022-09-20T19:47:31.149Z,12.50
2022-09-20T19:50:15.954Z,12.50
2022-09-20T19:52:44.715Z,12.30
2022-09-20T19:55:13.561Z,12.30
2022-09-20T19:57:47.198Z,12.20
2022-09-20T20:00:20.169Z,12.10
2022-09-20T20:02:47.937Z,12.00
2022-09-20T20:05:18.432Z,12.00
2022-09-20T20:08:36.061Z,11.90
2022-09-20T20:11:48.952Z,11.90
2022-09-20T20:14:30.617Z,11.90
2022-09-20T20:17:20.803Z,11.90
2022-09-20T20:20:05.566Z,11.90
2022-09-20T20:23:11.274Z,11.90
2022-09-20T20:26:03.168Z,11.90
2022-09-20T20:28:30.776Z,12.00
2022-09-20T20:31:00.265Z,11.90
2022-09-20T20:33:27.938Z,11.90
2022-09-20T20:35:59.694Z,11.80
2022-09-20T20:38:27.212Z,11.80
2022-09-20T20:41:04.689Z,11.70
2022-09-20T20:43:37.477Z,11.50
2022-09-20T20:46:06.859Z,11.50
2022-09-20T20:48:33.913Z,11.50
2022-09-20T20:51:08.063Z,11.40
2022-09-20T20:53:37.560Z,11.50
2022-09-20T20:56:26.374Z,11.40
2022-09-20T20:58:54.274Z,11.40
2022-09-20T21:01:36.070Z,11.40
2022-09-20T21:04:04.796Z,11.30
2022-09-20T21:06:34.507Z,11.20
2022-09-20T21:09:03.158Z,11.20
2022-09-20T21:11:33.606Z,11.20
2022-09-20T21:14:02.853Z,11.20
2022-09-20T21:16:32.228Z,11.10
2022-09-20T21:18:59.297Z,11.10
2022-09-20T21:21:35.249Z,11.10
2022-09-20T21:24:04.918Z,11.10
2022-09-20T21:26:34.198Z,11.00
2022-09-20T21:29:03.568Z,11.00
2022-09-20T21:31:33.580Z,11.00
2022-09-20T21:34:00.937Z,11.00
2022-09-20T21:36:29.969Z,10.80
2022-09-20T21:38:57.435Z,10.60
2022-09-20T21:41:35.954Z,10.50
2022-09-20T21:44:04.089Z,10.30
2022-09-20T21:46:36.433Z,10.30
2022-09-20T21:49:05.652Z,10.10
2022-09-20T21:51:33.579Z,10.00
2022-09-20T21:54:01.770Z,10.00
2022-09-20T21:56:31.434Z,10.00
2022-09-20T21:58:59.519Z,10.00
2022-09-20T22:01:28.111Z,10.00
2022-09-20T22:04:00.304Z,10.00
2022-09-20T22:06:30.118Z,10.00
2022-09-20T22:08:59.532Z,10.00
2022-09-20T22:11:28.691Z,10.00
2022-09-20T22:13:56.501Z,10.00
2022-09-20T22:16:26.799Z,10.00
2022-09-20T22:18:54.278Z,10.00
2022-09-20T22:21:24.433Z,10.00
2022-09-20T22:23:56.355Z,9.90
2022-09-20T22:26:25.429Z,9.80
2022-09-20T22:28:52.683Z,9.70
2022-09-20T22:31:22.435Z,9.70
2022-09-20T22:33:54.538Z,9.70
2022-09-20T22:36:23.577Z,9.70
2022-09-20T22:38:51.021Z,9.70
2022-09-20T22:41:19.058Z,9.70
2022-09-20T22:43:46.583Z,9.70
2022-09-20T22:46:16.166Z,9.70
2022-09-20T22:48:43.768Z,9.70
2022-09-20T22:51:16.811Z,9.70
2022-09-20T22:53:44.523Z,9.70
2022-09-20T22:56:32.235Z,9.60
2022-09-20T22:59:03.241Z,9.60
2022-09-20T23:01:34.841Z,9.70
2022-09-20T23:04:08.295Z,9.70
2022-09-20T23:06:43.875Z,9.60
2022-09-20T23:09:12.823Z,9.60
2022-09-20T23:11:42.194Z,9.50
2022-09-20T23:14:11.810Z,9.50
2022-09-20T23:16:39.683Z,9.50
2022-09-20T23:19:07.667Z,9.40
2022-09-20T23:21:36.483Z,9.40
2022-09-20T23:24:05.592Z,9.30
2022-09-20T23:26:35.621Z,9.30
2022-09-20T23:29:08.549Z,9.20
2022-09-20T23:31:37.796Z,9.20
2022-09-20T23:34:06.905Z,9.10
2022-09-20T23:36:38.287Z,8.90
2022-09-20T23:39:07.066Z,8.80
2022-09-20T23:41:34.481Z,8.90
2022-09-20T23:44:01.990Z,8.80
2022-09-20T23:46:28.980Z,8.80
2022-09-20T23:48:56.027Z,8.90
2022-09-20T23:51:25.270Z,8.70
2022-09-20T23:53:53.652Z,8.60
2022-09-20T23:56:22.473Z,8.60
2022-09-20T23:58:50.299Z,8.50
